createdAt,value
2022-10-28T02:47:08.673Z,61.81
2022-10-28T02:49:41.086Z,60.59
2022-10-28T02:52:13.149Z,61.20
2022-10-28T02:54:45.369Z,61.23
2022-10-28T02:57:17.859Z,61.48
2022-10-28T02:59:47.525Z,62.05
2022-10-28T03:02:18.012Z,62.08
2022-10-28T03:04:48.891Z,61.25
2022-10-28T03:07:20.171Z,60.77
2022-10-28T03:09:51.432Z,61.35
2022-10-28T03:12:22.217Z,60.97
2022-10-28T03:14:52.666Z,61.04
2022-10-28T03:17:23.489Z,61.13
2022-10-28T03:19:53.910Z,61.02
2022-10-28T03:22:25.116Z,60.55
2022-10-28T03:24:55.801Z,60.07
2022-10-28T03:27:26.443Z,60.56
2022-10-28T03:29:56.969Z,60.36
2022-10-28T03:32:27.798Z,60.24
2022-10-28T03:34:58.222Z,60.56
2022-10-28T03:37:29.047Z,61.42
2022-10-28T03:40:01.523Z,61.03
2022-10-28T03:42:36.412Z,61.44
2022-10-28T03:45:10.243Z,61.86
2022-10-28T03:47:41.298Z,61.82
2022-10-28T03:50:11.773Z,61.90
2022-10-28T03:52:43.468Z,62.52
2022-10-28T03:55:14.434Z,62.79
2022-10-28T03:57:45.035Z,62.15
2022-10-28T04:00:17.038Z,61.69
2022-10-28T04:02:52.620Z,61.79
2022-10-28T04:05:23.486Z,61.14
2022-10-28T04:07:54.373Z,61.68
2022-10-28T04:10:24.761Z,62.11
2022-10-28T04:13:00.744Z,61.32
2022-10-28T04:15:31.227Z,61.23
2022-10-28T04:18:01.951Z,61.37
2022-10-28T04:20:32.485Z,61.08
2022-10-28T04:23:03.908Z,58.56
2022-10-28T04:25:34.568Z,63.66
2022-10-28T04:28:05.693Z,65.00
2022-10-28T04:30:36.049Z,63.80
2022-10-28T04:33:06.975Z,63.07
2022-10-28T04:35:39.458Z,63.69
2022-10-28T04:38:10.661Z,63.03
2022-10-28T04:40:41.639Z,62.31
2022-10-28T04:43:12.874Z,61.21
2022-10-28T04:45:43.416Z,60.75
2022-10-28T04:48:14.344Z,60.96
2022-10-28T04:50:44.779Z,61.31
2022-10-28T04:53:15.635Z,61.37
2022-10-28T04:55:46.064Z,60.90
2022-10-28T04:58:17.488Z,61.37
2022-10-28T05:00:48.009Z,61.51
2022-10-28T05:03:18.855Z,61.02
2022-10-28T05:05:49.973Z,62.12
2022-10-28T05:08:20.822Z,62.19
2022-10-28T05:10:51.469Z,61.32
2022-10-28T05:13:22.041Z,61.16
2022-10-28T05:15:52.644Z,61.16
2022-10-28T05:18:23.345Z,61.23
2022-10-28T05:20:55.231Z,60.53
2022-10-28T05:23:28.494Z,59.55
2022-10-28T05:26:01.384Z,59.86
2022-10-28T05:28:32.143Z,64.88
2022-10-28T05:31:02.559Z,66.12
2022-10-28T05:33:33.904Z,64.17
2022-10-28T05:36:04.347Z,63.71
2022-10-28T05:38:35.626Z,63.59
2022-10-28T05:41:06.634Z,63.84
2022-10-28T05:43:37.436Z,63.46
2022-10-28T05:46:07.816Z,62.73
2022-10-28T05:48:38.484Z,62.27
2022-10-28T05:51:09.155Z,62.23
2022-10-28T05:53:42.024Z,61.78
2022-10-28T05:56:12.534Z,59.54
2022-10-28T05:58:43.196Z,59.27
2022-10-28T06:01:13.837Z,63.85
2022-10-28T06:03:44.830Z,65.28
2022-10-28T06:06:15.522Z,64.43
2022-10-28T06:08:46.247Z,63.15
2022-10-28T06:11:15.303Z,63.10
2022-10-28T06:13:46.148Z,62.56
2022-10-28T06:16:16.472Z,62.61
2022-10-28T06:18:47.640Z,61.91
2022-10-28T06:21:18.655Z,61.21
2022-10-28T06:23:50.771Z,61.21
2022-10-28T06:26:21.161Z,61.78
2022-10-28T06:28:51.957Z,61.46
2022-10-28T06:31:22.509Z,61.64
2022-10-28T06:33:53.353Z,60.67
2022-10-28T06:36:24.292Z,60.51
2022-10-28T06:38:55.238Z,61.07
2022-10-28T06:41:25.979Z,60.59
2022-10-28T06:43:56.915Z,59.68
2022-10-28T06:46:27.650Z,60.76
2022-10-28T06:49:03.381Z,60.59
2022-10-28T06:51:34.465Z,60.51
2022-10-28T06:54:05.246Z,58.64
2022-10-28T06:56:35.691Z,61.50
2022-10-28T06:59:07.873Z,64.86
2022-10-28T07:01:38.364Z,63.97
2022-10-28T07:04:14.082Z,63.29
2022-10-28T07:06:46.379Z,62.97
2022-10-28T07:09:19.482Z,61.86
2022-10-28T07:11:54.968Z,61.91
2022-10-28T07:14:29.652Z,62.26
2022-10-28T07:17:00.429Z,62.87
2022-10-28T07:19:31.220Z,62.33
2022-10-28T07:22:01.763Z,61.54
2022-10-28T07:24:32.464Z,61.27
2022-10-28T07:27:02.863Z,60.71
2022-10-28T07:29:33.463Z,60.86
2022-10-28T07:32:03.897Z,60.53
2022-10-28T07:34:34.818Z,60.27
2022-10-28T07:37:06.285Z,59.90
2022-10-28T07:42:12.965Z,60.48
2022-10-28T07:44:44.131Z,60.49
2022-10-28T07:47:14.561Z,60.72
2022-10-28T07:49:45.651Z,60.97
2022-10-28T07:52:16.560Z,60.53
2022-10-28T07:54:48.615Z,60.48
2022-10-28T07:57:19.300Z,60.53
2022-10-28T07:59:50.372Z,59.92
2022-10-28T08:02:21.752Z,59.90
2022-10-28T08:04:52.644Z,59.05
2022-10-28T08:07:23.392Z,57.51
2022-10-28T08:09:54.831Z,58.76
2022-10-28T08:12:25.741Z,64.79
2022-10-28T08:14:57.367Z,65.01
2022-10-28T08:17:27.866Z,63.72
2022-10-28T08:19:59.083Z,62.04
2022-10-28T08:22:29.700Z,61.72
2022-10-28T08:25:00.703Z,61.25
2022-10-28T08:27:32.150Z,61.23
2022-10-28T08:30:02.989Z,60.97
2022-10-28T08:32:33.555Z,60.32
2022-10-28T08:35:04.628Z,58.25
2022-10-28T08:37:35.719Z,60.86
2022-10-28T08:40:07.796Z,64.02
2022-10-28T08:42:40.314Z,62.16
2022-10-28T08:45:18.788Z,58.16
2022-10-28T08:47:56.239Z,60.95
2022-10-28T08:50:28.060Z,64.34
2022-10-28T08:53:00.887Z,63.61
2022-10-28T08:55:33.081Z,59.75
2022-10-28T08:58:06.249Z,57.81
2022-10-28T09:00:37.994Z,61.69
2022-10-28T09:03:17.070Z,64.51
2022-10-28T09:05:50.168Z,63.77
2022-10-28T09:08:28.893Z,58.05
2022-10-28T09:11:27.214Z,61.64
2022-10-28T09:14:06.535Z,63.22
2022-10-28T09:16:41.938Z,62.05
2022-10-28T09:19:16.965Z,56.78
2022-10-28T09:21:49.337Z,58.02
2022-10-28T09:24:21.375Z,61.52
2022-10-28T09:26:54.678Z,63.76
2022-10-28T09:29:35.741Z,60.90
2022-10-28T09:32:13.474Z,57.67
2022-10-28T09:34:45.823Z,60.23
2022-10-28T09:37:19.498Z,62.48
2022-10-28T09:39:51.787Z,58.80
2022-10-28T09:42:23.747Z,59.58
2022-10-28T09:44:56.634Z,62.34
2022-10-28T09:47:30.903Z,61.52
2022-10-28T09:50:03.637Z,57.68
2022-10-28T09:52:37.550Z,59.32
2022-10-28T09:55:17.564Z,62.29
2022-10-28T09:57:48.304Z,60.68
2022-10-28T10:00:19.630Z,58.29
2022-10-28T10:02:51.914Z,61.02
2022-10-28T10:05:22.578Z,62.58
2022-10-28T10:07:56.961Z,61.07
2022-10-28T10:10:29.181Z,58.34
2022-10-28T10:13:01.454Z,58.18
2022-10-28T10:15:32.701Z,59.98
2022-10-28T10:18:05.608Z,62.51
2022-10-28T10:20:48.849Z,62.21
2022-10-28T10:23:17.880Z,57.20
2022-10-28T10:25:54.976Z,58.62
2022-10-28T10:28:27.007Z,60.28
2022-10-28T10:30:58.868Z,62.44
2022-10-28T10:33:30.635Z,59.77
2022-10-28T10:36:03.105Z,58.25
2022-10-28T10:38:34.050Z,59.36
2022-10-28T10:41:04.975Z,61.36
2022-10-28T10:43:36.360Z,61.91
2022-10-28T10:46:07.174Z,62.17
2022-10-28T10:48:38.095Z,59.39
2022-10-28T10:51:09.832Z,57.87
2022-10-28T10:53:41.285Z,57.63
2022-10-28T10:56:13.391Z,59.10
2022-10-28T10:58:53.047Z,60.09
2022-10-28T11:01:26.903Z,60.59
2022-10-28T11:04:00.152Z,61.67
2022-10-28T11:06:31.763Z,61.33
2022-10-28T11:09:05.119Z,61.71
2022-10-28T11:11:36.797Z,61.34
2022-10-28T11:14:09.116Z,57.77
2022-10-28T11:16:53.099Z,58.30
2022-10-28T11:19:25.112Z,58.68
2022-10-28T11:22:12.446Z,59.03
2022-10-28T11:24:50.452Z,59.04
2022-10-28T11:27:27.526Z,59.24
2022-10-28T11:29:59.795Z,59.70
2022-10-28T11:32:44.058Z,60.02
2022-10-28T11:35:45.175Z,59.83
2022-10-28T11:38:22.251Z,59.59
2022-10-28T11:40:59.942Z,59.67
2022-10-28T11:43:33.773Z,59.07
2022-10-28T11:46:08.681Z,59.59
2022-10-28T11:48:45.720Z,59.74
2022-10-28T11:51:20.516Z,59.86
2022-10-28T11:54:00.238Z,59.90
2022-10-28T11:56:35.490Z,59.87
2022-10-28T11:59:15.350Z,59.62
2022-10-28T12:01:51.699Z,59.47
2022-10-28T12:04:30.625Z,59.61
2022-10-28T12:07:13.047Z,59.63
2022-10-28T12:09:50.052Z,58.97
2022-10-28T12:12:27.647Z,58.65
2022-10-28T12:15:01.341Z,58.20
2022-10-28T12:17:36.327Z,57.46
2022-10-28T12:20:12.700Z,57.69
2022-10-28T12:22:46.761Z,58.14
2022-10-28T12:25:19.121Z,58.25
2022-10-28T12:27:51.422Z,57.90
2022-10-28T12:30:22.938Z,57.51
2022-10-28T12:32:56.108Z,57.18
2022-10-28T12:35:29.397Z,57.18
2022-10-28T12:38:02.388Z,57.54
2022-10-28T12:40:35.475Z,57.18
2022-10-28T12:43:08.479Z,57.16
2022-10-28T12:45:37.421Z,57.31
2022-10-28T12:48:15.019Z,57.62
2022-10-28T12:50:47.889Z,57.66
2022-10-28T12:53:24.070Z,57.88
2022-10-28T12:55:58.181Z,58.25
2022-10-28T12:58:31.478Z,58.39
2022-10-28T13:01:04.404Z,58.41
2022-10-28T13:03:37.233Z,58.16
2022-10-28T13:06:25.650Z,57.81
2022-10-28T13:09:07.016Z,58.41
2022-10-28T13:11:48.753Z,57.54
2022-10-28T13:14:27.295Z,56.71
2022-10-28T13:17:10.628Z,56.04
2022-10-28T13:19:47.644Z,54.94
2022-10-28T13:25:11.271Z,53.02
2022-10-28T13:27:41.896Z,52.67
2022-10-28T13:30:18.418Z,52.79
2022-10-28T13:32:50.954Z,53.12
2022-10-28T13:35:24.537Z,53.97
2022-10-28T13:37:56.194Z,54.82
2022-10-28T13:40:40.864Z,55.46
2022-10-28T13:43:19.193Z,56.06
2022-10-28T13:45:52.315Z,56.26
2022-10-28T13:48:45.621Z,56.58
2022-10-28T13:51:38.701Z,56.69
2022-10-28T13:54:24.668Z,57.05
2022-10-28T13:57:02.349Z,57.30
2022-10-28T13:59:36.408Z,57.49
2022-10-28T14:05:09.470Z,56.82
2022-10-28T14:07:42.287Z,56.00
2022-10-28T14:10:23.666Z,55.33
2022-10-28T14:12:56.611Z,54.96
2022-10-28T14:15:29.891Z,55.57
2022-10-28T14:18:15.727Z,56.22
2022-10-28T14:20:59.326Z,56.27
2022-10-28T14:23:47.413Z,56.59
2022-10-28T14:26:18.824Z,56.46
2022-10-28T14:28:56.145Z,56.21
2022-10-28T14:31:37.213Z,55.90
2022-10-28T14:34:25.359Z,56.20
2022-10-28T14:37:01.007Z,54.95
2022-10-28T14:39:38.318Z,54.56
2022-10-28T14:42:22.437Z,54.77
2022-10-28T14:45:02.118Z,55.17
2022-10-28T14:47:39.066Z,54.76
2022-10-28T14:50:17.967Z,55.08
2022-10-28T14:52:49.753Z,54.57
2022-10-28T14:55:25.476Z,55.08
2022-10-28T14:57:56.488Z,55.61
2022-10-28T15:00:29.674Z,56.49
2022-10-28T15:02:58.482Z,57.67
2022-10-28T15:05:32.607Z,58.45
2022-10-28T15:08:05.389Z,59.35
2022-10-28T15:10:38.320Z,60.31
2022-10-28T15:13:17.308Z,60.91
2022-10-28T15:15:54.406Z,61.71
2022-10-28T15:18:25.887Z,62.25
2022-10-28T15:21:10.604Z,63.07
2022-10-28T15:23:41.526Z,60.39
2022-10-28T15:26:12.945Z,57.14
2022-10-28T15:28:44.069Z,58.17
2022-10-28T15:31:17.769Z,60.02
2022-10-28T15:33:48.184Z,61.44
2022-10-28T15:36:20.290Z,62.19
2022-10-28T15:38:53.221Z,64.64
2022-10-28T15:41:46.280Z,62.07
2022-10-28T15:44:26.181Z,61.24
2022-10-28T15:46:58.592Z,58.06
2022-10-28T15:49:36.702Z,57.49
2022-10-28T15:52:25.056Z,58.68
2022-10-28T15:54:59.068Z,59.43
2022-10-28T15:57:30.680Z,60.54
2022-10-28T16:00:14.724Z,62.09
2022-10-28T16:02:46.283Z,65.76
2022-10-28T16:05:30.323Z,63.53
2022-10-28T16:08:02.619Z,60.60
2022-10-28T16:10:35.707Z,58.53
2022-10-28T16:13:10.573Z,59.50
2022-10-28T16:15:47.153Z,62.15
2022-10-28T16:18:17.903Z,63.64
2022-10-28T16:20:48.742Z,60.73
2022-10-28T16:23:23.689Z,58.74
2022-10-28T16:25:54.422Z,61.46
2022-10-28T16:28:26.374Z,64.09
2022-10-28T16:30:58.039Z,62.25
2022-10-28T16:33:31.260Z,60.03
2022-10-28T16:36:02.811Z,59.06
2022-10-28T16:38:33.815Z,61.53
2022-10-28T16:41:05.104Z,64.42
2022-10-28T16:43:36.622Z,64.03
2022-10-28T16:46:07.663Z,63.13
2022-10-28T16:48:38.383Z,61.72
2022-10-28T16:51:13.008Z,60.57
2022-10-28T16:53:47.324Z,58.86
2022-10-28T16:56:19.163Z,59.51
2022-10-28T16:58:49.706Z,61.70
2022-10-28T17:01:21.956Z,65.41
2022-10-28T17:03:54.059Z,65.48
2022-10-28T17:06:24.820Z,63.33
2022-10-28T17:09:03.793Z,61.83
2022-10-28T17:11:34.689Z,60.82
2022-10-28T17:14:05.398Z,59.02
2022-10-28T17:16:38.075Z,59.42
2022-10-28T17:19:11.556Z,60.94
2022-10-28T17:21:42.841Z,64.98
2022-10-28T17:24:14.004Z,65.02
2022-10-28T17:26:46.313Z,62.86
2022-10-28T17:29:16.977Z,61.39
2022-10-28T17:31:48.293Z,60.68
2022-10-28T17:34:19.345Z,58.96
2022-10-28T17:36:49.871Z,59.30
2022-10-28T17:39:25.722Z,61.15
2022-10-28T17:41:56.890Z,64.19
2022-10-28T17:44:28.025Z,64.98
2022-10-28T17:46:58.563Z,63.01
2022-10-28T17:49:30.187Z,62.22
2022-10-28T17:52:00.813Z,61.15
2022-10-28T17:54:32.175Z,60.39
2022-10-28T17:57:02.904Z,58.91
2022-10-28T17:59:33.829Z,59.47
2022-10-28T18:02:04.227Z,61.33
2022-10-28T18:04:35.518Z,64.46
2022-10-28T18:07:06.140Z,65.25
2022-10-28T18:09:37.088Z,63.95
2022-10-28T18:12:07.936Z,62.14
2022-10-28T18:14:38.749Z,61.81
2022-10-28T18:17:09.066Z,61.82
2022-10-28T18:19:39.933Z,61.59
2022-10-28T18:22:10.487Z,60.95
2022-10-28T18:24:41.188Z,60.60
2022-10-28T18:27:11.728Z,59.18
2022-10-28T18:29:42.422Z,59.85
2022-10-28T18:32:13.165Z,62.38
2022-10-28T18:34:44.128Z,65.96
2022-10-28T18:37:14.849Z,63.70
2022-10-28T18:39:46.019Z,61.96
2022-10-28T18:42:20.934Z,61.30
2022-10-28T18:44:58.555Z,61.05
2022-10-28T18:47:28.865Z,61.46
2022-10-28T18:49:59.632Z,60.94
2022-10-28T18:52:30.193Z,60.77
2022-10-28T18:55:01.184Z,61.06
2022-10-28T18:57:32.022Z,62.11
2022-10-28T19:00:19.043Z,62.62
2022-10-28T19:02:50.399Z,62.14
2022-10-28T19:05:21.622Z,61.86
2022-10-28T19:07:52.663Z,61.42
2022-10-28T19:10:23.741Z,61.68
2022-10-28T19:12:54.274Z,62.46
2022-10-28T19:15:25.200Z,62.91
2022-10-28T19:17:56.297Z,63.22
2022-10-28T19:20:27.820Z,63.58
2022-10-28T19:22:58.803Z,63.87
2022-10-28T19:25:29.926Z,63.10
2022-10-28T19:28:00.935Z,63.11
2022-10-28T19:30:31.691Z,62.59
2022-10-28T19:33:02.252Z,62.61
2022-10-28T19:35:33.618Z,62.91
2022-10-28T19:38:04.176Z,63.04
2022-10-28T19:40:34.796Z,62.62
2022-10-28T19:43:05.125Z,62.26
2022-10-28T19:45:36.476Z,61.94
2022-10-28T19:48:07.506Z,61.66
2022-10-28T19:50:39.061Z,61.64
2022-10-28T19:53:09.382Z,61.39
2022-10-28T19:55:40.537Z,61.80
2022-10-28T19:58:10.863Z,61.74
2022-10-28T20:00:41.686Z,61.77
2022-10-28T20:03:11.995Z,61.50
2022-10-28T20:05:43.510Z,61.38
2022-10-28T20:08:14.398Z,61.40
2022-10-28T20:10:46.895Z,61.02
2022-10-28T20:13:17.296Z,60.72
2022-10-28T20:15:48.876Z,60.61
2022-10-28T20:18:19.171Z,61.25
2022-10-28T20:20:50.565Z,62.12
2022-10-28T20:23:20.853Z,61.81
2022-10-28T20:25:52.031Z,62.11
2022-10-28T20:28:22.428Z,62.15
2022-10-28T20:31:00.324Z,62.33
2022-10-28T20:33:31.260Z,62.52
2022-10-28T20:36:02.839Z,62.37
2022-10-28T20:38:33.541Z,61.24
2022-10-28T20:41:04.815Z,61.84
2022-10-28T20:43:35.291Z,62.29
2022-10-28T20:46:07.327Z,62.65
2022-10-28T20:48:38.214Z,63.38
2022-10-28T20:51:10.362Z,63.07
2022-10-28T20:53:40.811Z,63.60
2022-10-28T20:56:16.421Z,63.50
2022-10-28T20:58:46.783Z,63.19
2022-10-28T21:01:18.436Z,62.72
2022-10-28T21:03:49.164Z,62.65
2022-10-28T21:06:21.226Z,62.51
2022-10-28T21:08:51.755Z,62.69
2022-10-28T21:11:23.845Z,62.84
2022-10-28T21:13:55.243Z,62.53
2022-10-28T21:16:26.926Z,62.27
2022-10-28T21:18:57.531Z,61.73
2022-10-28T21:21:29.123Z,61.78
2022-10-28T21:24:01.806Z,61.21
2022-10-28T21:26:32.619Z,60.86
2022-10-28T21:29:02.955Z,60.83
2022-10-28T21:31:33.802Z,60.92
2022-10-28T21:34:07.377Z,60.74
2022-10-28T21:36:39.798Z,60.42
2022-10-28T21:39:10.389Z,60.07
2022-10-28T21:41:41.730Z,60.69
2022-10-28T21:44:12.341Z,60.64
2022-10-28T21:46:43.504Z,60.36
2022-10-28T21:49:13.748Z,60.42
2022-10-28T21:51:44.770Z,61.57
2022-10-28T21:54:16.907Z,61.69
2022-10-28T21:56:50.246Z,61.78
2022-10-28T21:59:20.488Z,60.57
2022-10-28T22:01:51.942Z,61.06
2022-10-28T22:04:22.259Z,62.40
2022-10-28T22:06:53.165Z,62.92
2022-10-28T22:09:23.458Z,63.74
2022-10-28T22:11:54.435Z,63.21
2022-10-28T22:14:24.751Z,63.14
2022-10-28T22:16:55.832Z,62.68
2022-10-28T22:19:26.310Z,62.73
2022-10-28T22:21:57.665Z,62.94
2022-10-28T22:24:27.881Z,63.06
2022-10-28T22:26:58.953Z,63.05
2022-10-28T22:29:30.166Z,62.72
2022-10-28T22:32:01.139Z,61.61
2022-10-28T22:34:31.635Z,61.70
2022-10-28T22:37:02.829Z,62.78
2022-10-28T22:39:33.101Z,62.94
2022-10-28T22:42:04.115Z,62.77
2022-10-28T22:44:34.340Z,62.51
2022-10-28T22:47:06.228Z,62.24
2022-10-28T22:49:36.959Z,61.57
2022-10-28T22:52:07.844Z,61.05
2022-10-28T22:54:38.208Z,62.33
2022-10-28T22:57:08.986Z,62.49
2022-10-28T22:59:39.582Z,61.70
2022-10-28T23:02:10.556Z,62.57
2022-10-28T23:04:40.919Z,62.18
2022-10-28T23:07:12.943Z,63.16
2022-10-28T23:09:43.223Z,63.22
2022-10-28T23:12:14.167Z,62.62
2022-10-28T23:14:44.491Z,63.27
2022-10-28T23:17:15.659Z,62.51
2022-10-28T23:19:46.177Z,62.65
2022-10-28T23:22:17.105Z,63.50
2022-10-28T23:24:47.416Z,64.11
2022-10-28T23:27:18.592Z,64.18
2022-10-28T23:29:49.195Z,64.36
2022-10-28T23:32:20.261Z,64.96
2022-10-28T23:34:50.607Z,64.71
2022-10-28T23:37:21.622Z,64.36
2022-10-28T23:39:51.901Z,64.06
2022-10-28T23:42:22.756Z,63.76
2022-10-28T23:44:52.959Z,62.96
2022-10-28T23:47:24.144Z,62.42
2022-10-28T23:49:54.557Z,62.49
2022-10-28T23:52:25.518Z,62.89
2022-10-28T23:54:55.800Z,62.98
2022-10-28T23:57:26.714Z,61.80
2022-10-28T23:59:57.070Z,61.48
